createdAt,value
2023-04-17T05:49:19.784Z,45.84
2023-04-17T05:51:47.102Z,51.16
2023-04-17T05:54:14.315Z,55.50
2023-04-17T05:56:41.634Z,58.87
2023-04-17T05:59:08.805Z,62.05
2023-04-17T06:01:36.321Z,65.11
2023-04-17T06:04:04.101Z,67.13
2023-04-17T06:06:31.804Z,69.70
2023-04-17T06:08:59.219Z,70.54
2023-04-17T06:11:27.152Z,72.71
2023-04-17T06:13:54.521Z,73.91
2023-04-17T06:16:21.893Z,74.23
2023-04-17T06:18:49.390Z,75.29
2023-04-17T06:21:17.849Z,77.05
2023-04-17T06:23:45.510Z,78.64
2023-04-17T06:26:13.137Z,79.21
2023-04-17T06:28:40.442Z,79.82
2023-04-17T06:31:07.749Z,80.28
2023-04-17T06:33:35.001Z,80.62
2023-04-17T06:36:02.858Z,82.24
2023-04-17T06:38:30.165Z,82.07
2023-04-17T06:40:57.337Z,83.29
2023-04-17T06:43:24.588Z,83.72
2023-04-17T06:45:51.858Z,84.35
2023-04-17T06:48:19.106Z,84.61
2023-04-17T06:50:46.873Z,84.87
2023-04-17T06:53:14.193Z,84.59
2023-04-17T06:55:41.354Z,85.58
2023-04-17T06:58:09.085Z,85.53
2023-04-17T07:00:36.365Z,85.46
2023-04-17T07:03:03.739Z,85.84
2023-04-17T07:05:31.324Z,86.11
2023-04-17T07:07:58.447Z,86.07
2023-04-17T07:10:25.791Z,85.49
2023-04-17T07:12:52.987Z,85.36
2023-04-17T07:15:20.206Z,85.76
2023-04-17T07:17:47.983Z,85.48
2023-04-17T07:20:15.228Z,85.51
2023-04-17T07:22:43.178Z,85.14
2023-04-17T07:25:10.368Z,85.80
2023-04-17T07:27:38.394Z,85.77
2023-04-17T07:30:08.017Z,85.85
2023-04-17T07:32:36.150Z,85.37
2023-04-17T07:35:04.619Z,85.56
2023-04-17T07:37:32.984Z,86.17
2023-04-17T07:40:00.213Z,86.47
2023-04-17T07:42:28.464Z,86.48
2023-04-17T07:44:56.099Z,86.04
2023-04-17T07:47:24.021Z,85.26
2023-04-17T07:49:51.385Z,85.58
2023-04-17T07:52:18.744Z,85.37
2023-04-17T07:54:46.028Z,85.69
2023-04-17T07:57:14.975Z,84.84
2023-04-17T07:59:42.289Z,84.37
2023-04-17T08:02:09.618Z,84.14
2023-04-17T08:04:40.382Z,83.76
2023-04-17T08:07:10.622Z,83.90
2023-04-17T08:09:37.934Z,84.08
2023-04-17T08:12:06.004Z,83.89
2023-04-17T08:14:33.262Z,84.35
2023-04-17T08:17:00.915Z,83.90
2023-04-17T08:19:29.845Z,83.68
2023-04-17T08:22:04.776Z,83.44
2023-04-17T08:24:32.031Z,83.01
2023-04-17T08:26:59.360Z,83.52
2023-04-17T08:29:26.574Z,82.52
2023-04-17T08:32:10.426Z,82.68
2023-04-17T08:34:41.341Z,83.21
2023-04-17T08:37:08.511Z,82.13
2023-04-17T08:39:35.780Z,82.18
2023-04-17T08:42:13.997Z,81.86
2023-04-17T08:44:43.908Z,81.65
2023-04-17T08:47:12.596Z,81.16
2023-04-17T08:49:43.273Z,80.74
2023-04-17T08:52:10.908Z,80.41
2023-04-17T08:54:38.981Z,79.80
2023-04-17T08:57:06.490Z,78.82
2023-04-17T08:59:33.999Z,78.30
2023-04-17T09:02:04.675Z,77.98
2023-04-17T09:04:40.034Z,77.82
2023-04-17T09:07:08.685Z,77.67
2023-04-17T09:09:53.306Z,78.18
2023-04-17T09:12:21.975Z,77.43
2023-04-17T09:14:49.615Z,76.58
2023-04-17T09:17:19.020Z,76.46
2023-04-17T09:20:12.232Z,76.63
2023-04-17T09:22:40.922Z,76.62
2023-04-17T09:25:18.440Z,76.57
2023-04-17T09:27:46.449Z,76.93
2023-04-17T09:30:14.067Z,76.85
2023-04-17T09:32:41.494Z,76.92
2023-04-17T09:35:09.309Z,77.10
2023-04-17T09:37:53.952Z,76.43
2023-04-17T09:40:22.913Z,75.11
2023-04-17T09:43:03.823Z,73.17
2023-04-17T09:45:40.211Z,71.02
2023-04-17T09:48:13.512Z,69.13
2023-04-17T09:50:40.931Z,68.07
2023-04-17T09:53:08.725Z,67.14
2023-04-17T09:55:37.688Z,66.58
2023-04-17T09:58:06.377Z,66.90
2023-04-17T10:00:33.689Z,65.86
2023-04-17T10:03:01.154Z,66.10
2023-04-17T10:05:32.455Z,64.46
2023-04-17T10:07:59.997Z,63.73
2023-04-17T10:10:32.391Z,64.15
2023-04-17T10:13:01.806Z,63.67
2023-04-17T10:15:29.696Z,63.39
2023-04-17T10:18:23.845Z,63.18
2023-04-17T10:20:53.324Z,61.45
2023-04-17T10:23:32.087Z,61.62
2023-04-17T10:26:34.633Z,60.34
2023-04-17T10:29:02.037Z,60.22
2023-04-17T10:32:07.251Z,58.81
2023-04-17T10:34:35.956Z,58.16
2023-04-17T10:37:04.962Z,57.71
2023-04-17T10:40:01.670Z,57.61
2023-04-17T10:42:30.174Z,57.43
2023-04-17T10:44:59.674Z,56.47
2023-04-17T10:47:34.432Z,56.04
2023-04-17T10:50:07.566Z,55.66
2023-04-17T10:52:34.855Z,54.50
2023-04-17T10:55:06.464Z,54.58
2023-04-17T10:57:53.108Z,53.92
2023-04-17T11:00:49.965Z,53.96
2023-04-17T11:03:18.374Z,53.18
2023-04-17T11:05:47.209Z,52.84
2023-04-17T11:08:14.947Z,52.70
2023-04-17T11:10:42.192Z,52.65
2023-04-17T11:13:10.426Z,52.64
2023-04-17T11:15:37.698Z,52.66
2023-04-17T11:18:05.068Z,52.29
2023-04-17T11:20:33.721Z,52.14
2023-04-17T11:23:04.957Z,50.19
2023-04-17T11:25:34.102Z,50.22
2023-04-17T11:28:05.008Z,50.00
2023-04-17T11:30:34.643Z,49.38
2023-04-17T11:33:06.755Z,48.82
2023-04-17T11:35:36.177Z,48.65
2023-04-17T11:38:13.522Z,48.98
2023-04-17T11:40:45.484Z,49.23
2023-04-17T11:43:13.499Z,49.17
2023-04-17T11:45:42.691Z,49.34
2023-04-17T11:48:12.076Z,48.32
2023-04-17T11:50:40.396Z,48.01
2023-04-17T11:53:07.698Z,48.11
2023-04-17T11:55:35.643Z,47.43
2023-04-17T11:58:06.410Z,47.23
2023-04-17T12:00:34.286Z,46.44
2023-04-17T12:03:03.321Z,46.70
2023-04-17T12:05:31.504Z,47.97
2023-04-17T12:08:04.561Z,49.05
2023-04-17T12:10:41.938Z,50.53
2023-04-17T12:13:12.224Z,51.18
2023-04-17T12:15:39.470Z,51.88
2023-04-17T12:18:08.579Z,52.95
2023-04-17T12:20:36.846Z,53.90
2023-04-17T12:23:05.684Z,54.40
2023-04-17T12:25:33.992Z,55.66
2023-04-17T12:28:04.824Z,57.31
2023-04-17T12:30:35.857Z,57.09
2023-04-17T12:33:03.217Z,58.49
2023-04-17T12:35:30.832Z,58.53
2023-04-17T12:37:58.140Z,59.05
2023-04-17T12:40:25.381Z,59.06
2023-04-17T12:42:52.621Z,59.38
2023-04-17T12:45:20.104Z,59.05
2023-04-17T12:47:47.458Z,58.22
2023-04-17T12:50:14.824Z,58.85
2023-04-17T12:52:42.076Z,58.79
2023-04-17T12:55:09.876Z,59.21
2023-04-17T12:57:37.333Z,59.28
2023-04-17T13:00:09.361Z,59.06
2023-04-17T13:02:37.161Z,59.34
2023-04-17T13:05:07.371Z,59.45
2023-04-17T13:07:34.757Z,59.57
2023-04-17T13:10:02.695Z,60.03
2023-04-17T13:12:29.961Z,59.87
2023-04-17T13:14:57.488Z,60.37
2023-04-17T13:17:25.415Z,60.37
2023-04-17T13:19:52.638Z,60.65
2023-04-17T13:22:20.695Z,60.79
2023-04-17T13:24:49.105Z,61.60
2023-04-17T13:27:16.889Z,61.63
2023-04-17T13:29:44.419Z,62.48
2023-04-17T13:32:11.622Z,62.91
2023-04-17T13:34:38.949Z,63.76
2023-04-17T13:37:07.266Z,64.55
2023-04-17T13:39:34.816Z,64.57
2023-04-17T13:42:02.463Z,65.26
2023-04-17T13:44:29.694Z,66.23
2023-04-17T13:46:56.883Z,66.85
2023-04-17T13:49:24.205Z,67.03
2023-04-17T13:51:51.511Z,67.22
2023-04-17T13:54:18.976Z,67.14
2023-04-17T13:56:46.302Z,67.50
2023-04-17T13:59:13.911Z,68.03
2023-04-17T14:01:41.740Z,68.06
2023-04-17T14:04:09.568Z,68.35
2023-04-17T14:06:37.045Z,68.25
2023-04-17T14:09:05.796Z,69.00
2023-04-17T14:11:33.311Z,69.42
2023-04-17T14:14:00.782Z,70.05
2023-04-17T14:16:28.764Z,70.66
2023-04-17T14:18:57.867Z,71.21
2023-04-17T14:21:27.711Z,71.75
2023-04-17T14:23:56.770Z,72.73
2023-04-17T14:26:24.223Z,73.58
2023-04-17T14:28:51.354Z,75.33
2023-04-17T14:31:18.620Z,76.28
2023-04-17T14:33:46.351Z,76.37
2023-04-17T14:36:14.623Z,77.77
2023-04-17T14:38:41.941Z,78.40
2023-04-17T14:41:09.142Z,78.75
2023-04-17T14:43:36.304Z,79.20
2023-04-17T14:46:03.546Z,79.94
2023-04-17T14:48:32.722Z,80.83
2023-04-17T14:51:02.001Z,81.33
2023-04-17T14:53:29.301Z,81.81
2023-04-17T14:55:56.483Z,81.99
2023-04-17T14:58:23.637Z,82.64
2023-04-17T15:00:50.926Z,83.56
2023-04-17T15:03:18.392Z,83.27
2023-04-17T15:05:46.320Z,83.81
2023-04-17T15:08:13.526Z,84.45
2023-04-17T15:10:50.864Z,84.98
2023-04-17T15:13:18.907Z,85.24
2023-04-17T15:15:46.262Z,85.60
2023-04-17T15:18:13.731Z,85.51
2023-04-17T15:20:40.987Z,85.49
2023-04-17T15:23:08.212Z,86.05
2023-04-17T15:25:35.476Z,86.03
2023-04-17T15:28:02.785Z,86.69
2023-04-17T15:30:30.204Z,87.15
2023-04-17T15:32:57.495Z,86.85
2023-04-17T15:35:24.698Z,87.17
2023-04-17T15:37:51.995Z,88.34
2023-04-17T15:40:19.196Z,88.15
2023-04-17T15:42:47.133Z,88.28
2023-04-17T15:45:14.453Z,88.32
2023-04-17T15:47:41.678Z,87.47
2023-04-17T15:50:09.525Z,87.53
2023-04-17T15:52:36.641Z,87.63
2023-04-17T16:02:27.497Z,88.17
2023-04-17T16:04:54.883Z,89.01
2023-04-17T16:07:23.795Z,89.46
2023-04-17T16:09:51.137Z,89.48
2023-04-17T16:12:18.546Z,89.42
2023-04-17T16:14:47.282Z,89.49
2023-04-17T16:17:14.487Z,89.96
2023-04-17T16:19:41.604Z,90.07
2023-04-17T16:22:08.869Z,89.44
2023-04-17T16:24:36.259Z,89.30
2023-04-17T16:27:04.256Z,89.92
2023-04-17T16:29:31.960Z,90.33
2023-04-17T16:31:59.566Z,89.93
2023-04-17T16:34:28.343Z,90.00
2023-04-17T16:36:55.545Z,90.96
2023-04-17T16:39:22.742Z,91.13
2023-04-17T16:41:52.200Z,91.46
2023-04-17T16:44:19.593Z,91.18
2023-04-17T16:47:09.399Z,91.66
2023-04-17T16:49:36.913Z,92.38
2023-04-17T16:52:04.268Z,92.78
2023-04-17T16:54:31.836Z,93.44
2023-04-17T16:56:59.128Z,93.47
2023-04-17T16:59:26.887Z,93.78
2023-04-17T17:01:54.067Z,94.13
2023-04-17T17:04:21.270Z,94.73
2023-04-17T17:06:48.526Z,94.66
2023-04-17T17:09:15.841Z,95.26
2023-04-17T17:11:43.466Z,95.92
2023-04-17T17:14:10.858Z,96.14
2023-04-17T17:16:38.091Z,96.24
2023-04-17T17:19:06.028Z,96.38
2023-04-17T17:21:33.473Z,96.86
2023-04-17T17:24:03.097Z,96.67
2023-04-17T17:26:30.254Z,98.30
2023-04-17T17:28:57.518Z,98.25
2023-04-17T17:31:24.748Z,98.04
2023-04-17T17:33:54.010Z,98.90
2023-04-17T17:36:24.273Z,99.19
2023-04-17T17:38:55.777Z,99.67
2023-04-17T17:41:23.874Z,100.00
2023-04-17T17:43:51.841Z,100.00
2023-04-17T17:46:22.191Z,100.00
2023-04-17T17:48:49.930Z,100.00
2023-04-17T17:51:17.365Z,100.00
2023-04-17T17:53:44.745Z,100.00
2023-04-17T17:56:11.907Z,100.00
2023-04-17T17:58:39.177Z,100.00
2023-04-17T18:01:06.936Z,100.00
2023-04-17T18:03:37.040Z,100.00
2023-04-17T18:06:04.726Z,100.00
2023-04-17T18:08:32.290Z,100.00
2023-04-17T18:11:02.275Z,100.00
2023-04-17T18:13:29.689Z,100.00
2023-04-17T18:15:56.856Z,100.00
2023-04-17T18:18:24.058Z,100.00
2023-04-17T18:20:51.359Z,100.00
2023-04-17T18:23:18.673Z,100.00
2023-04-17T18:25:45.874Z,100.00
2023-04-17T18:28:16.165Z,100.00
2023-04-17T18:30:43.818Z,100.00
2023-04-17T18:33:11.152Z,100.00
2023-04-17T18:35:38.283Z,100.00
2023-04-17T18:38:06.041Z,100.00
2023-04-17T18:40:33.440Z,100.00
2023-04-17T18:43:00.845Z,100.00
2023-04-17T18:45:28.252Z,100.00
2023-04-17T18:47:55.532Z,100.00
2023-04-17T18:50:22.758Z,100.00
2023-04-17T18:52:51.227Z,100.00
2023-04-17T18:55:18.801Z,100.00
2023-04-17T18:57:46.216Z,100.00
2023-04-17T19:00:13.878Z,100.00
2023-04-17T19:02:41.294Z,100.00
2023-04-17T19:05:09.060Z,100.00
2023-04-17T19:07:36.259Z,100.00
2023-04-17T19:10:04.358Z,100.00
2023-04-17T19:12:31.730Z,100.00
2023-04-17T19:14:58.962Z,100.00
2023-04-17T19:17:26.128Z,100.00
2023-04-17T19:19:53.307Z,100.00
2023-04-17T19:22:20.524Z,100.00
2023-04-17T19:24:50.242Z,100.00
2023-04-17T19:27:17.624Z,100.00
2023-04-17T19:29:44.838Z,100.00
2023-04-17T19:32:12.947Z,100.00
2023-04-17T19:34:40.133Z,100.00
2023-04-17T19:37:07.401Z,100.00
2023-04-17T19:39:34.713Z,100.00
2023-04-17T19:42:03.276Z,100.00
2023-04-17T19:44:30.623Z,100.00
2023-04-17T19:46:57.891Z,100.00
2023-04-17T19:49:25.373Z,100.00
2023-04-17T19:51:52.573Z,100.00
2023-04-17T19:54:19.771Z,100.00
2023-04-17T19:56:47.224Z,100.00
2023-04-17T19:59:14.840Z,100.00
2023-04-17T20:05:23.311Z,100.00
2023-04-17T20:07:50.592Z,100.00
2023-04-17T20:10:18.115Z,100.00
2023-04-17T20:12:45.318Z,100.00
2023-04-17T20:15:12.713Z,100.00
2023-04-17T20:17:40.049Z,100.00
2023-04-17T20:20:07.908Z,100.00
2023-04-17T20:22:35.866Z,100.00
2023-04-17T20:25:03.392Z,100.00
2023-04-17T20:27:30.612Z,100.00
2023-04-17T20:29:57.917Z,100.00
2023-04-17T20:32:25.128Z,100.00
2023-04-17T20:34:52.405Z,100.00
2023-04-17T20:37:21.188Z,100.00
2023-04-17T20:39:49.739Z,100.00
2023-04-17T20:42:16.891Z,100.00
2023-04-17T20:44:44.128Z,100.00
2023-04-17T20:47:37.446Z,100.00
2023-04-17T20:50:06.397Z,100.00
2023-04-17T20:52:34.038Z,100.00
2023-04-17T20:55:02.217Z,100.00
2023-04-17T20:57:29.759Z,100.00
2023-04-17T20:59:56.973Z,100.00
2023-04-17T21:02:24.177Z,100.00
2023-04-17T21:04:51.534Z,100.00
2023-04-17T21:07:19.164Z,100.00
2023-04-17T21:09:46.471Z,100.00
2023-04-17T21:12:13.686Z,100.00
2023-04-17T21:14:43.104Z,100.00
2023-04-17T21:17:51.048Z,100.00
2023-04-17T21:20:18.320Z,100.00
2023-04-17T21:22:45.526Z,100.00
2023-04-17T21:25:12.815Z,100.00
2023-04-17T21:27:41.150Z,100.00
2023-04-17T21:30:10.586Z,100.00
2023-04-17T21:32:39.050Z,100.00
2023-04-17T21:35:06.808Z,100.00
2023-04-17T21:37:34.211Z,100.00
2023-04-17T21:40:01.863Z,100.00
2023-04-17T21:42:29.101Z,100.00
2023-04-17T21:44:56.285Z,100.00
2023-04-17T21:47:23.629Z,100.00
2023-04-17T21:49:50.961Z,100.00
2023-04-17T21:52:18.238Z,100.00
2023-04-17T21:54:45.777Z,100.00
2023-04-17T21:57:13.091Z,100.00
2023-04-17T21:59:40.505Z,100.00
2023-04-17T22:02:07.752Z,100.00
2023-04-17T22:04:35.252Z,100.00
2023-04-17T22:07:02.462Z,100.00
2023-04-17T22:09:29.655Z,100.00
2023-04-17T22:11:57.164Z,100.00
2023-04-17T22:14:24.373Z,100.00
2023-04-17T22:16:52.343Z,100.00
2023-04-17T22:19:19.590Z,100.00
2023-04-17T22:21:46.761Z,100.00
2023-04-17T22:24:14.145Z,100.00
2023-04-17T22:26:41.740Z,100.00
2023-04-17T22:29:08.931Z,100.00
2023-04-17T22:31:36.371Z,100.00
2023-04-17T22:34:03.850Z,100.00
2023-04-17T22:36:31.189Z,100.00
2023-04-17T22:38:58.454Z,100.00
2023-04-17T22:41:25.710Z,100.00
2023-04-17T22:43:52.899Z,100.00
2023-04-17T22:46:20.169Z,100.00
2023-04-17T22:48:49.616Z,100.00
2023-04-17T22:51:17.761Z,100.00
2023-04-17T22:53:44.991Z,100.00
2023-04-17T22:56:12.917Z,100.00
2023-04-17T22:58:40.315Z,100.00
2023-04-17T23:01:07.682Z,100.00
2023-04-17T23:03:35.280Z,100.00
2023-04-17T23:06:03.172Z,100.00
2023-04-17T23:08:30.986Z,100.00
2023-04-17T23:11:03.454Z,100.00
2023-04-17T23:13:31.647Z,100.00
2023-04-17T23:15:58.882Z,100.00
2023-04-17T23:18:26.147Z,100.00
2023-04-17T23:20:53.478Z,100.00
2023-04-17T23:23:20.656Z,100.00
2023-04-17T23:25:47.842Z,100.00
2023-04-17T23:28:15.107Z,100.00
2023-04-17T23:30:42.373Z,100.00
2023-04-17T23:33:09.796Z,100.00
2023-04-17T23:35:37.109Z,100.00
2023-04-17T23:38:04.441Z,100.00
2023-04-17T23:40:32.800Z,100.00
2023-04-17T23:43:00.084Z,100.00
2023-04-17T23:45:27.729Z,100.00
2023-04-17T23:47:54.971Z,100.00
2023-04-17T23:50:22.153Z,100.00
2023-04-17T23:52:49.463Z,100.00
2023-04-17T23:55:16.882Z,100.00
2023-04-17T23:57:44.020Z,100.00
